Time;durP1;ratioP1;P1;durP2;ratioP2;P2;SDS_P1;SDS_P2;PMS_P1;PMS_P2;Temp;Humidity;BMP_temperature;BMP_pressure;BME280_temperature;BME280_humidity;BME280_pressure;Samples;Min_cycle;Max_cycle;Signal;HPM_P1;HPM_P2
2022/12/08 00:00:30;;;;;;;5.95;3.67;;;;;;;2.43;93.36;99312.88;10459641;28;20037;-76
2022/12/08 00:10:53;;;;;;;4.50;3.20;;;;;;;2.70;90.79;99306.56;10459542;28;20406;-76
2022/12/08 00:15:59;;;;;;;7.15;3.70;;;;;;;2.61;91.65;99318.75;10441492;28;20045;-75
2022/12/08 00:21:01;;;;;;;3.55;3.08;;;;;;;2.71;90.78;99300.50;10457646;28;20040;-76
2022/12/08 00:26:04;;;;;;;5.20;3.72;;;;;;;2.69;89.99;99306.56;10457078;28;20052;-75
2022/12/08 00:31:10;;;;;;;5.28;3.67;;;;;;;2.67;90.07;99304.00;10457034;28;20073;-75
2022/12/08 00:36:13;;;;;;;5.30;3.07;;;;;;;2.56;90.97;99302.38;10459258;28;20087;-76
2022/12/08 00:42:10;;;;;;;9.48;3.58;;;;;;;2.50;91.29;99303.31;10440338;28;20107;-75
2022/12/08 00:46:41;;;;;;;9.95;3.90;;;;;;;2.74;89.10;99290.03;10457190;28;20045;-76
2022/12/08 00:51:44;;;;;;;7.05;3.83;;;;;;;2.54;90.54;99297.22;10457550;28;20048;-76
2022/12/08 00:56:45;;;;;;;5.95;3.47;;;;;;;2.52;90.72;99293.75;10439478;28;20053;-75
2022/12/08 01:01:47;;;;;;;4.70;3.50;;;;;;;2.41;92.05;99296.50;10458233;28;20123;-75
2022/12/08 01:06:49;;;;;;;4.65;3.55;;;;;;;2.40;91.67;99297.38;10457170;28;20095;-75
2022/12/08 01:11:51;;;;;;;4.85;3.50;;;;;;;2.18;93.63;99303.66;10457658;28;20041;-76
2022/12/08 01:16:52;;;;;;;5.13;3.88;;;;;;;2.26;93.65;99297.53;10457230;28;20045;-75
2022/12/08 01:21:54;;;;;;;5.53;4.63;;;;;;;2.38;92.55;99296.50;10457088;28;20513;-76
2022/12/08 01:26:56;;;;;;;7.53;4.50;;;;;;;2.31;93.69;99286.25;10457991;28;20070;-75
2022/12/08 01:31:57;;;;;;;5.25;4.40;;;;;;;2.19;94.82;99287.22;10457265;28;20462;-76
2022/12/08 01:37:00;;;;;;;5.65;5.03;;;;;;;2.20;95.30;99286.34;10456510;28;20049;-76
2022/12/08 01:42:01;;;;;;;9.60;4.50;;;;;;;2.23;94.89;99281.13;10456822;28;20486;-75
2022/12/08 01:47:03;;;;;;;5.53;4.55;;;;;;;2.23;95.60;99271.59;10456393;28;20099;-74
2022/12/08 01:52:25;;;;;;;9.88;5.00;;;;;;;2.25;95.94;99274.19;10455716;28;20045;-73
2022/12/08 01:57:33;;;;;;;6.03;4.97;;;;;;;2.03;96.72;99276.13;10456196;28;20116;-73
2022/12/08 02:02:58;;;;;;;6.65;5.95;;;;;;;2.02;96.49;99264.91;10443736;28;20494;-73
2022/12/08 02:08:07;;;;;;;7.72;5.47;;;;;;;2.00;97.08;99258.88;10463082;28;20127;-73
2022/12/08 02:13:14;;;;;;;6.65;6.05;;;;;;;2.01;96.91;99257.16;10463823;28;20560;-73
2022/12/08 02:18:18;;;;;;;;;;;;;;;1.97;97.17;99245.09;10465067;28;20079;-73
2022/12/08 02:23:30;;;;;;;6.80;6.20;;;;;;;1.88;97.50;99243.44;10463578;28;19975;-73
2022/12/08 02:29:08;;;;;;;7.43;6.72;;;;;;;1.85;97.38;99243.47;10463452;28;20049;-73
2022/12/08 02:34:19;;;;;;;8.02;7.32;;;;;;;1.79;97.75;99248.72;10462667;28;20055;-73
2022/12/08 02:39:40;;;;;;;9.02;7.03;;;;;;;1.84;97.98;99246.06;10462974;28;20041;-73
2022/12/08 02:45:10;;;;;;;8.82;7.75;;;;;;;1.84;97.95;99235.72;10461064;28;20103;-72
2022/12/08 02:50:12;;;;;;;8.65;7.95;;;;;;;1.95;96.96;99229.56;10437725;28;20044;-73
2022/12/08 02:55:23;;;;;;;7.65;6.95;;;;;;;1.84;97.23;99233.97;10462362;28;20033;-73
2022/12/08 03:00:28;;;;;;;8.32;7.50;;;;;;;1.89;97.20;99218.38;10462109;28;20059;-73
2022/12/08 03:05:44;;;;;;;8.07;7.35;;;;;;;1.91;97.65;99219.25;10461831;28;20041;-73
2022/12/08 03:10:56;;;;;;;6.85;6.15;;;;;;;2.24;94.32;99215.41;10450786;28;20120;-73
2022/12/08 03:16:08;;;;;;;8.00;7.25;;;;;;;2.15;94.33;99210.34;10483990;28;20037;-73
2022/12/08 03:21:15;;;;;;;8.43;7.47;;;;;;;2.15;94.08;99213.78;10458653;28;20029;-73
2022/12/08 03:26:26;;;;;;;7.85;7.22;;;;;;;2.10;95.07;99212.13;10462307;28;20099;-72
2022/12/08 03:31:32;;;;;;;8.30;7.53;;;;;;;1.96;96.18;99205.34;10443208;28;20136;-74
2022/12/08 03:36:34;;;;;;;8.40;7.53;;;;;;;2.06;95.83;99206.09;10459253;28;20391;-73
2022/12/08 03:41:36;;;;;;;7.72;7.03;;;;;;;2.10;95.16;99191.38;10459370;28;20048;-73
2022/12/08 03:46:38;;;;;;;8.18;7.57;;;;;;;2.16;94.52;99186.13;10458054;28;20498;-74
2022/12/08 03:51:39;;;;;;;7.35;6.65;;;;;;;2.23;94.16;99182.59;10459744;28;20048;-74
2022/12/08 03:56:41;;;;;;;7.15;6.53;;;;;;;2.29;93.35;99179.91;10461896;28;20048;-74
2022/12/08 04:01:43;;;;;;;7.63;7.03;;;;;;;2.35;93.04;99179.88;10442377;28;20063;-74
2022/12/08 04:06:49;;;;;;;7.05;6.45;;;;;;;2.25;94.15;99176.50;10450182;28;20094;-73
2022/12/08 04:11:54;;;;;;;7.55;6.90;;;;;;;2.37;93.53;99179.84;10467627;28;20048;-74
2022/12/08 04:16:55;;;;;;;7.57;6.93;;;;;;;2.41;93.76;99169.41;10469786;28;20040;-72
2022/12/08 04:21:57;;;;;;;8.00;7.30;;;;;;;2.44;94.14;99161.59;10462694;28;20041;-73
2022/12/08 04:26:59;;;;;;;7.70;7.00;;;;;;;2.41;94.64;99155.56;10465169;28;20045;-73
2022/12/08 04:32:02;;;;;;;7.13;6.32;;;;;;;2.39;95.24;99157.31;10451405;28;20064;-73
2022/12/08 04:37:10;;;;;;;8.57;7.43;;;;;;;2.46;94.66;99158.97;10473843;28;20045;-72
2022/12/08 04:42:12;;;;;;;7.55;6.95;;;;;;;2.20;97.21;99154.94;10458884;28;20033;-72
2022/12/08 04:47:14;;;;;;;8.68;7.78;;;;;;;2.38;95.93;99150.41;10459158;28;20049;-73
2022/12/08 04:52:15;;;;;;;7.40;6.70;;;;;;;2.38;96.13;99140.91;10459404;28;20482;-74
2022/12/08 04:57:18;;;;;;;6.75;6.15;;;;;;;2.42;96.07;99152.09;10443407;28;20049;-73
2022/12/08 05:02:20;;;;;;;7.55;6.85;;;;;;;2.36;96.75;99141.81;10452806;28;20033;-73
2022/12/08 05:07:22;;;;;;;7.78;7.03;;;;;;;2.38;96.37;99148.69;10457802;28;20079;-73
2022/12/08 05:12:24;;;;;;;8.30;7.60;;;;;;;2.33;97.39;99145.28;10442168;28;20041;-72
2022/12/08 05:17:25;;;;;;;8.63;7.88;;;;;;;2.19;98.68;99136.84;10459655;28;20048;-73
2022/12/08 05:22:27;;;;;;;9.52;8.63;;;;;;;2.21;98.57;99129.88;10462818;28;20131;-74
2022/12/08 05:27:29;;;;;;;8.98;8.18;;;;;;;2.15;98.75;99120.44;10460033;28;20041;-73
2022/12/08 05:32:31;;;;;;;8.27;7.68;;;;;;;2.35;97.02;99124.53;10465767;28;20041;-74
2022/12/08 05:37:32;;;;;;;8.13;7.43;;;;;;;2.35;96.01;99127.13;10467955;28;20487;-73
2022/12/08 05:42:34;;;;;;;8.07;7.45;;;;;;;2.22;97.20;99126.44;10447714;28;20076;-73
2022/12/08 05:47:36;;;;;;;8.10;7.40;;;;;;;2.38;95.55;99121.88;10464750;28;20114;-74
2022/12/08 05:52:38;;;;;;;7.55;7.00;;;;;;;2.27;96.38;99122.91;10447570;28;20044;-73
2022/12/08 05:57:39;;;;;;;7.28;6.78;;;;;;;2.31;95.34;99120.28;10465296;28;20086;-73
2022/12/08 06:02:41;;;;;;;7.90;7.30;;;;;;;2.17;95.84;99125.59;10466323;28;20426;-74
2022/12/08 06:07:43;;;;;;;7.95;7.40;;;;;;;2.33;94.97;99124.53;10446500;28;20049;-73
2022/12/08 06:12:45;;;;;;;9.05;8.25;;;;;;;2.21;95.47;99120.41;10447740;28;20057;-73
2022/12/08 06:17:47;;;;;;;7.53;6.82;;;;;;;2.17;96.13;99129.09;10465053;28;20384;-72
2022/12/08 06:22:49;;;;;;;8.70;8.00;;;;;;;2.18;95.95;99135.13;10465940;28;20047;-72
2022/12/08 06:27:51;;;;;;;7.82;7.22;;;;;;;2.20;95.33;99134.22;10447779;28;20076;-72
2022/12/08 06:32:53;;;;;;;8.00;7.40;;;;;;;2.31;95.06;99138.44;10466682;28;20048;-72
2022/12/08 06:37:55;;;;;;;8.38;7.78;;;;;;;2.45;94.30;99133.91;10466200;28;20041;-72
2022/12/08 06:42:56;;;;;;;8.18;7.47;;;;;;;2.33;94.81;99136.66;10464612;28;20037;-72
2022/12/08 06:48:00;;;;;;;8.18;7.55;;;;;;;2.50;93.50;99142.47;10462018;28;20052;-72
2022/12/08 06:53:02;;;;;;;9.80;9.00;;;;;;;2.40;94.79;99139.16;10463773;28;20462;-72
2022/12/08 06:58:07;;;;;;;7.68;7.07;;;;;;;2.63;93.65;99146.63;10448791;28;20083;-72
2022/12/08 07:03:10;;;;;;;8.20;7.50;;;;;;;2.76;93.67;99152.50;10466291;28;20119;-73
2022/12/08 07:08:12;;;;;;;7.88;7.28;;;;;;;2.52;95.03;99148.50;10446714;28;20045;-73
2022/12/08 07:13:14;;;;;;;8.55;7.85;;;;;;;2.71;94.19;99151.72;10445533;28;20041;-73
2022/12/08 07:18:16;;;;;;;8.68;7.97;;;;;;;2.57;95.32;99145.84;10464723;28;20048;-72
2022/12/08 07:23:18;;;;;;;8.90;8.20;;;;;;;2.57;95.29;99153.63;10463861;28;20048;-73
2022/12/08 07:28:19;;;;;;;8.52;8.00;;;;;;;2.54;95.79;99138.97;10462349;28;20498;-72
2022/12/08 07:33:21;;;;;;;9.20;8.50;;;;;;;2.45;96.42;99141.69;10443114;28;20051;-73
2022/12/08 07:38:23;;;;;;;9.20;8.50;;;;;;;2.45;96.35;99141.69;10461653;28;20040;-72
2022/12/08 07:43:28;;;;;;;10.00;9.25;;;;;;;2.39;96.79;99136.56;10445909;28;20041;-73
2022/12/08 07:48:31;;;;;;;11.55;10.75;;;;;;;2.31;96.64;99139.28;10445548;28;20065;-73
2022/12/08 07:53:33;;;;;;;9.68;8.98;;;;;;;2.43;96.34;99146.03;10461444;28;20453;-72
2022/12/08 07:58:35;;;;;;;9.85;9.05;;;;;;;2.50;94.85;99138.16;10460035;28;20095;-73
2022/12/08 08:03:37;;;;;;;10.02;9.05;;;;;;;2.58;94.58;99134.59;10462133;28;20502;-73
2022/12/08 08:08:39;;;;;;;10.30;9.57;;;;;;;2.72;93.13;99146.50;10461791;28;20048;-74
2022/12/08 08:13:41;;;;;;;9.27;8.57;;;;;;;2.72;92.35;99151.69;10461482;28;20045;-73
2022/12/08 08:18:47;;;;;;;9.48;8.77;;;;;;;2.79;91.87;99147.28;10460233;28;20041;-73
2022/12/08 08:23:48;;;;;;;10.43;9.63;;;;;;;2.78;92.64;99151.59;10459390;28;20037;-73
2022/12/08 08:28:50;;;;;;;10.40;9.50;;;;;;;2.74;92.99;99143.88;10441629;28;20045;-74
2022/12/08 08:33:52;;;;;;;11.38;10.55;;;;;;;2.57;94.69;99140.66;10441244;28;20045;-73
2022/12/08 08:38:54;;;;;;;9.35;8.65;;;;;;;2.80;92.55;99142.94;10459087;28;20033;-72
2022/12/08 08:43:56;;;;;;;10.23;9.43;;;;;;;2.68;93.39;99137.03;10458401;28;20045;-73
2022/12/08 08:48:58;;;;;;;9.43;8.70;;;;;;;2.76;92.06;99144.72;10440878;28;20045;-73
2022/12/08 08:53:59;;;;;;;9.63;8.82;;;;;;;2.84;91.69;99155.00;10457495;28;20043;-73
2022/12/08 08:59:01;;;;;;;9.93;9.23;;;;;;;2.78;91.76;99149.00;10440452;28;20136;-74
2022/12/08 09:04:04;;;;;;;9.38;8.57;;;;;;;2.75;91.50;99161.19;10458683;28;20072;-74
2022/12/08 09:09:06;;;;;;;10.20;9.50;;;;;;;2.67;92.33;99157.81;10460104;28;20041;-73
2022/12/08 09:14:10;;;;;;;9.25;8.55;;;;;;;2.82;91.50;99157.59;10465952;28;20391;-73
2022/12/08 09:19:12;;;;;;;9.77;9.00;;;;;;;3.12;91.03;99166.66;10467037;28;20060;-73
2022/12/08 09:24:15;;;;;;;10.02;9.32;;;;;;;3.32;90.17;99166.38;10448391;28;20052;-72
2022/12/08 09:29:17;;;;;;;8.88;8.27;;;;;;;3.67;86.03;99159.69;10466645;28;20045;-71
2022/12/08 09:34:18;;;;;;;10.50;9.68;;;;;;;3.68;87.02;99151.88;10447637;28;20067;-72
2022/12/08 09:39:20;;;;;;;9.30;8.57;;;;;;;3.63;87.55;99152.81;10447567;28;20064;-72
2022/12/08 09:44:47;;;;;;;8.32;7.72;;;;;;;3.89;85.24;99136.75;10464752;28;20418;-73
2022/12/08 09:50:00;;;;;;;8.40;7.70;;;;;;;3.95;85.03;99137.50;10463267;28;20049;-72
2022/12/08 09:55:11;;;;;;;8.88;8.20;;;;;;;3.95;85.00;99127.09;10462922;28;20095;-72
2022/12/08 10:00:14;;;;;;;7.50;6.90;;;;;;;4.30;81.84;99128.16;10445865;28;20095;-73
2022/12/08 10:05:16;;;;;;;8.35;7.65;;;;;;;4.36;80.27;99120.19;10464718;28;20044;-72
2022/12/08 10:10:40;;;;;;;7.72;6.93;;;;;;;4.48;79.20;99114.75;10464193;28;20044;-72
2022/12/08 10:16:08;;;;;;;7.47;6.88;;;;;;;4.55;77.80;99118.91;10462105;28;20440;-73
2022/12/08 10:21:19;;;;;;;7.47;6.82;;;;;;;4.58;76.55;99102.38;10422561;28;20103;-72
2022/12/08 10:26:21;;;;;;;6.70;6.15;;;;;;;4.61;75.45;99111.88;10463712;28;20048;-73
2022/12/08 10:31:24;;;;;;;6.80;6.30;;;;;;;4.48;77.13;99106.94;10462746;28;20041;-73
2022/12/08 10:36:48;;;;;;;5.85;5.30;;;;;;;4.58;75.41;99099.78;10462863;28;20048;-73
2022/12/08 10:41:50;;;;;;;5.80;5.20;;;;;;;4.53;75.29;99097.28;10462523;28;20033;-72
2022/12/08 10:46:52;;;;;;;5.07;4.68;;;;;;;4.52;74.44;99094.72;10444403;28;20449;-74
2022/12/08 10:51:54;;;;;;;5.55;5.15;;;;;;;4.63;75.06;99086.66;10462269;28;20041;-72
2022/12/08 10:56:56;;;;;;;6.13;5.63;;;;;;;4.67;74.50;99077.88;10461838;28;20047;-73
2022/12/08 11:01:59;;;;;;;7.78;6.97;;;;;;;4.63;75.56;99071.03;10462075;28;20033;-72
2022/12/08 11:07:03;;;;;;;5.38;4.90;;;;;;;5.07;71.20;99076.03;10462024;28;20111;-73
2022/12/08 11:12:08;;;;;;;4.95;4.65;;;;;;;5.40;68.11;99073.47;10461274;28;20510;-74
2022/12/08 11:17:09;;;;;;;5.75;5.28;;;;;;;5.28;69.63;99072.03;10461145;28;20045;-72
2022/12/08 11:22:38;;;;;;;4.88;4.47;;;;;;;4.98;71.78;99065.00;10461491;28;20036;-72
2022/12/08 11:27:46;;;;;;;4.43;4.03;;;;;;;5.01;71.52;99057.97;10461209;28;20044;-73
2022/12/08 11:33:02;;;;;;;4.85;4.47;;;;;;;5.13;70.38;99045.50;10459571;28;20041;-73
2022/12/08 11:38:10;;;;;;;4.53;4.22;;;;;;;5.05;70.29;99045.72;10461524;28;20053;-72
2022/12/08 11:43:47;;;;;;;4.38;3.97;;;;;;;4.92;69.40;99045.16;10460162;28;20082;-72
2022/12/08 11:48:52;;;;;;;3.80;3.50;;;;;;;4.88;71.80;99053.94;10442185;28;20063;-71
2022/12/08 11:54:10;;;;;;;3.10;2.90;;;;;;;4.79;70.81;99047.22;10459481;28;20051;-73
2022/12/08 11:59:37;;;;;;;3.65;3.35;;;;;;;4.74;69.00;99040.41;10442534;28;20056;-72
2022/12/08 12:04:48;;;;;;;;;;;;;;;4.70;69.53;99042.22;10444138;28;20428;-71
2022/12/08 12:09:53;;;;;;;3.53;3.22;;;;;;;4.68;70.34;99038.78;10441816;28;19927;-72
2022/12/08 12:15:16;;;;;;;3.15;2.85;;;;;;;5.15;69.74;99034.16;10460214;28;20044;-73
2022/12/08 12:20:45;;;;;;;3.05;2.75;;;;;;;5.36;68.10;99044.91;10459992;28;20045;-72
2022/12/08 12:25:58;;;;;;;3.45;3.10;;;;;;;5.48;66.90;99039.38;10458650;28;20037;-72
2022/12/08 12:31:07;;;;;;;3.38;3.08;;;;;;;5.51;67.03;99027.13;10440994;28;20144;-72
2022/12/08 12:36:10;;;;;;;3.47;3.17;;;;;;;5.41;67.54;99024.81;10458661;28;20074;-72
2022/12/08 12:41:13;;;;;;;3.63;3.33;;;;;;;5.23;67.70;99024.41;10458023;28;20041;-72
2022/12/08 12:46:24;;;;;;;3.70;3.40;;;;;;;5.05;67.57;99017.94;10456527;28;20048;-73
2022/12/08 12:51:38;;;;;;;4.78;4.28;;;;;;;5.00;68.24;99014.59;10440219;28;20090;-73
2022/12/08 12:56:47;;;;;;;4.45;4.13;;;;;;;4.89;69.94;99013.13;10458615;28;20041;-72
2022/12/08 13:01:55;;;;;;;4.05;3.75;;;;;;;4.99;69.04;99006.78;10457743;28;20041;-72
2022/12/08 13:06:57;;;;;;;4.00;3.70;;;;;;;4.88;69.00;99009.69;10457938;28;20109;-73
2022/12/08 13:12:09;;;;;;;4.05;3.75;;;;;;;4.91;67.61;99008.72;10439850;28;20410;-72
2022/12/08 13:17:15;;;;;;;5.80;4.22;;;;;;;4.86;69.07;99005.38;10440072;28;20045;-72
2022/12/08 13:22:45;;;;;;;4.13;3.83;;;;;;;4.70;69.51;98995.38;10457190;28;20044;-73
2022/12/08 13:27:53;;;;;;;4.93;4.53;;;;;;;4.73;70.26;98981.41;10457945;28;20037;-72
2022/12/08 13:32:58;;;;;;;4.75;4.15;;;;;;;4.64;70.65;98985.09;10455773;28;20111;-73
2022/12/08 13:38:25;;;;;;;4.30;4.00;;;;;;;4.73;69.78;98984.00;10456978;28;20041;-72
2022/12/08 13:43:40;;;;;;;3.83;3.53;;;;;;;4.68;70.37;98989.34;10457503;28;20047;-72
2022/12/08 13:49:04;;;;;;;4.78;4.38;;;;;;;4.38;71.84;98992.66;10457995;28;20087;-73
2022/12/08 13:54:35;;;;;;;10.18;4.38;;;;;;;4.49;71.24;98996.75;10497647;22;20041;-72
2022/12/08 14:00:13;;;;;;;4.60;4.20;;;;;;;4.53;70.44;98997.53;10478752;28;20567;-72
2022/12/08 14:05:17;;;;;;;4.55;4.15;;;;;;;4.38;71.43;99003.06;10464367;28;20457;-71
2022/12/08 14:10:26;;;;;;;3.92;3.63;;;;;;;4.30;71.77;99008.47;10448356;28;20135;-71
2022/12/08 14:15:30;;;;;;;5.03;4.57;;;;;;;4.19;71.91;99005.25;10464940;28;20401;-71
2022/12/08 14:20:39;;;;;;;4.70;4.25;;;;;;;4.11;72.20;98999.34;10448058;28;20055;-71
2022/12/08 14:26:03;;;;;;;4.65;3.95;;;;;;;4.03;72.36;98994.34;10449278;28;20056;-71
2022/12/08 14:31:07;;;;;;;6.15;5.65;;;;;;;3.74;74.03;98995.81;10464840;28;20049;-71
2022/12/08 14:36:19;;;;;;;4.75;3.90;;;;;;;3.68;74.21;98985.53;10463702;28;20051;-71
2022/12/08 14:41:30;;;;;;;5.65;4.20;;;;;;;3.47;75.39;98991.16;10463500;28;20402;-72
2022/12/08 14:46:32;;;;;;;5.60;5.10;;;;;;;3.33;76.82;98986.25;10463776;28;20040;-72
2022/12/08 14:51:35;;;;;;;6.80;6.20;;;;;;;3.23;77.56;98995.97;10464305;28;20479;-71
2022/12/08 14:56:55;;;;;;;6.85;6.22;;;;;;;3.05;78.17;98998.88;10463202;28;20513;-72
2022/12/08 15:02:25;;;;;;;5.65;5.15;;;;;;;3.05;78.57;98996.28;10462991;28;20457;-72
2022/12/08 15:07:45;;;;;;;5.20;4.80;;;;;;;2.95;79.29;98993.00;10461805;28;20053;-72
2022/12/08 15:13:10;;;;;;;4.72;4.30;;;;;;;2.89;79.61;99003.50;10464559;28;20080;-72
2022/12/08 15:18:17;;;;;;;4.80;4.40;;;;;;;2.91;79.42;99003.47;10422166;28;20046;-72
2022/12/08 15:23:26;;;;;;;5.35;4.85;;;;;;;2.71;80.54;98998.63;10443554;28;20052;-72
2022/12/08 15:28:28;;;;;;;5.78;4.82;;;;;;;2.62;82.04;99007.41;10426678;28;20052;-72
2022/12/08 15:33:31;;;;;;;5.68;5.18;;;;;;;2.81;81.33;99007.09;10442231;28;20148;-72
2022/12/08 15:38:33;;;;;;;9.43;5.93;;;;;;;2.61;81.89;99003.09;10443325;28;20051;-70
2022/12/08 15:43:34;;;;;;;6.78;6.18;;;;;;;2.33;84.21;99007.00;10459715;28;20045;-70
2022/12/08 15:48:36;;;;;;;8.07;7.45;;;;;;;2.19;85.06;99005.47;10458849;28;20051;-71
2022/12/08 15:53:38;;;;;;;7.50;6.65;;;;;;;2.34;84.88;99008.69;10442372;28;20135;-70
2022/12/08 15:58:40;;;;;;;8.13;7.43;;;;;;;2.18;85.68;99006.34;10461600;28;20052;-72
2022/12/08 16:03:59;;;;;;;8.70;7.13;;;;;;;2.19;85.76;99007.19;10460075;28;20037;-72
2022/12/08 16:09:34;;;;;;;8.73;7.80;;;;;;;2.28;85.06;99007.91;10440512;28;20460;-72
2022/12/08 16:14:38;;;;;;;8.90;8.00;;;;;;;2.23;85.46;99003.69;10434664;28;20566;-70
2022/12/08 16:20:00;;;;;;;8.07;7.28;;;;;;;2.26;85.79;99001.06;10457625;28;20131;-70
2022/12/08 16:25:03;;;;;;;8.15;7.47;;;;;;;2.33;85.04;99010.44;10455207;28;20060;-71
2022/12/08 16:30:19;;;;;;;7.47;6.78;;;;;;;2.37;84.38;99009.50;10456290;28;20075;-70
2022/12/08 16:35:20;;;;;;;7.25;5.88;;;;;;;2.34;85.24;99009.56;10457349;28;20064;-71
2022/12/08 16:40:22;;;;;;;5.97;5.57;;;;;;;2.52;83.88;99004.09;10458602;28;20055;-71
2022/12/08 16:45:28;;;;;;;5.28;4.78;;;;;;;2.67;82.33;99004.75;10457973;28;20041;-72
2022/12/08 16:50:33;;;;;;;6.13;5.63;;;;;;;2.70;82.57;99002.97;10457843;28;20041;-72
2022/12/08 16:55:34;;;;;;;6.50;5.90;;;;;;;3.00;80.19;98993.75;10457463;28;20044;-72
2022/12/08 17:00:36;;;;;;;6.72;6.13;;;;;;;2.83;81.29;99013.09;10459758;28;20049;-72
2022/12/08 17:05:39;;;;;;;6.40;5.70;;;;;;;2.77;81.93;99008.88;10442904;28;20044;-73
2022/12/08 17:10:41;;;;;;;5.47;4.97;;;;;;;2.75;81.47;99013.25;10459174;28;20048;-71
2022/12/08 17:15:43;;;;;;;4.70;4.30;;;;;;;2.82;80.80;99014.00;10462622;28;20041;-72
2022/12/08 17:20:44;;;;;;;5.68;4.82;;;;;;;3.04;79.48;98999.75;10456994;28;20095;-72
2022/12/08 17:25:57;;;;;;;5.00;4.60;;;;;;;2.95;80.52;99005.97;10440017;28;20048;-72
2022/12/08 17:30:59;;;;;;;4.85;4.45;;;;;;;2.78;81.30;99013.19;10459950;28;20120;-72
2022/12/08 17:36:01;;;;;;;5.75;5.25;;;;;;;2.92;80.03;99011.25;10446392;28;20518;-72
2022/12/08 17:41:07;;;;;;;5.40;4.88;;;;;;;2.90;80.34;99014.72;10445855;28;20075;-72
2022/12/08 17:46:09;;;;;;;4.87;4.37;;;;;;;2.90;80.73;99012.13;10447483;28;20068;-72
2022/12/08 17:51:11;;;;;;;4.95;4.55;;;;;;;3.04;79.91;99020.53;10463385;28;20288;-71
2022/12/08 17:56:16;;;;;;;5.07;4.68;;;;;;;3.05;79.53;99006.66;10446013;28;20505;-74
2022/12/08 18:01:18;;;;;;;4.80;4.40;;;;;;;3.04;79.82;99004.94;10445507;28;20049;-74
2022/12/08 18:06:20;;;;;;;4.85;4.45;;;;;;;3.12;79.64;99004.81;10462485;28;20041;-74
2022/12/08 18:11:22;;;;;;;4.88;4.47;;;;;;;3.21;78.17;99010.69;10463957;28;20068;-74
2022/12/08 18:16:26;;;;;;;5.03;4.65;;;;;;;2.95;80.99;99012.91;10444388;28;20456;-74
2022/12/08 18:21:29;;;;;;;4.93;4.45;;;;;;;3.12;78.93;99000.47;10463061;28;20047;-74
2022/12/08 18:26:31;;;;;;;5.57;5.07;;;;;;;3.01;80.46;99013.66;10444699;28;20049;-74
2022/12/08 18:31:33;;;;;;;5.30;4.80;;;;;;;3.18;79.22;99009.91;10463794;28;20040;-75
2022/12/08 18:36:35;;;;;;;4.47;3.75;;;;;;;3.20;78.94;99014.19;10462026;28;20063;-74
2022/12/08 18:41:37;;;;;;;6.15;5.32;;;;;;;3.27;78.76;99015.78;10461127;28;20045;-74
2022/12/08 18:46:38;;;;;;;6.15;5.55;;;;;;;3.16;79.21;99012.53;10445016;28;20044;-74
2022/12/08 18:51:41;;;;;;;5.60;5.15;;;;;;;3.19;79.68;99002.09;10464669;28;20099;-75
2022/12/08 18:56:43;;;;;;;5.57;5.07;;;;;;;3.26;78.16;99003.69;10462116;28;20095;-74
2022/12/08 19:01:44;;;;;;;5.05;4.65;;;;;;;3.23;78.97;99006.34;10461621;28;20037;-75
2022/12/08 19:06:46;;;;;;;5.00;4.60;;;;;;;3.22;78.36;98996.81;10460637;28;20049;-75
2022/12/08 19:11:48;;;;;;;5.50;5.10;;;;;;;3.26;77.88;98990.69;10461147;28;20053;-74
2022/12/08 19:16:50;;;;;;;5.25;4.82;;;;;;;3.23;77.93;98995.06;10445499;28;20049;-74
2022/12/08 19:21:52;;;;;;;5.03;4.53;;;;;;;3.17;78.06;99003.00;10462832;28;20529;-74
2022/12/08 19:26:54;;;;;;;4.90;4.50;;;;;;;3.21;76.75;98999.47;10460559;28;20052;-75
2022/12/08 19:31:56;;;;;;;4.93;4.53;;;;;;;3.24;76.23;98994.22;10459766;28;20056;-74
2022/12/08 19:36:58;;;;;;;5.25;4.75;;;;;;;3.33;75.63;99001.84;10461346;28;20120;-74
2022/12/08 19:47:22;;;;;;;5.03;4.63;;;;;;;3.28;76.20;99007.13;10459365;28;20090;-74
2022/12/08 19:52:24;;;;;;;5.25;4.75;;;;;;;3.40;75.43;99011.19;10445645;23;20057;-71
2022/12/08 19:57:26;;;;;;;4.80;4.38;;;;;;;3.28;75.84;99006.25;10408868;28;20390;-70
2022/12/08 20:02:28;;;;;;;6.80;4.90;;;;;;;3.27;75.80;99017.50;10461608;28;20461;-71
2022/12/08 20:07:30;;;;;;;5.00;4.60;;;;;;;3.26;76.31;99019.25;10461240;28;20047;-71
2022/12/08 20:12:32;;;;;;;4.78;4.28;;;;;;;3.30;76.64;99025.25;10443713;28;20041;-72
2022/12/08 20:17:33;;;;;;;4.72;4.38;;;;;;;3.16;78.30;99022.06;10460649;28;20041;-70
2022/12/08 20:22:35;;;;;;;5.65;5.25;;;;;;;3.29;77.81;99026.16;10460546;28;20163;-71
2022/12/08 20:27:37;;;;;;;6.13;5.63;;;;;;;3.20;78.41;99023.72;10460257;28;20045;-71
2022/12/08 20:32:39;;;;;;;5.85;5.35;;;;;;;3.21;79.99;99033.22;10460621;28;20033;-70
2022/12/08 20:37:41;;;;;;;5.85;5.35;;;;;;;3.00;82.06;99042.22;10426870;28;20049;-70
2022/12/08 20:42:43;;;;;;;7.00;5.88;;;;;;;3.00;83.15;99044.81;10460507;28;20034;-71
2022/12/08 20:47:45;;;;;;;6.55;6.05;;;;;;;3.04;83.97;99049.09;10441950;28;20048;-71
2022/12/08 20:52:46;;;;;;;7.55;6.80;;;;;;;2.90;85.31;99045.88;10440268;28;20486;-71
2022/12/08 20:57:48;;;;;;;7.50;6.90;;;;;;;2.74;88.54;99053.88;10458425;28;20467;-71
2022/12/08 21:02:50;;;;;;;7.55;6.85;;;;;;;2.73;88.52;99059.13;10459862;28;20438;-71
2022/12/08 21:07:57;;;;;;;6.80;6.30;;;;;;;2.75;90.19;99063.41;10473137;28;20475;-71
2022/12/08 21:13:00;;;;;;;7.75;7.15;;;;;;;2.59;91.80;99055.88;10474395;28;20045;-72
2022/12/08 21:18:02;;;;;;;7.53;6.82;;;;;;;2.76;91.08;99061.69;10473991;28;20052;-71
2022/12/08 21:23:04;;;;;;;7.55;7.05;;;;;;;2.58;92.10;99061.97;10473609;28;20084;-71
2022/12/08 21:28:06;;;;;;;9.35;8.65;;;;;;;2.45;93.98;99066.47;10473855;28;20110;-71
2022/12/08 21:33:08;;;;;;;7.90;7.30;;;;;;;2.57;93.10;99068.00;10474792;28;20043;-71
2022/12/08 21:38:11;;;;;;;9.85;9.05;;;;;;;2.28;95.94;99074.47;10439794;28;20460;-72
2022/12/08 21:43:13;;;;;;;10.77;9.88;;;;;;;2.11;98.42;99069.50;10473537;28;20115;-71
2022/12/08 21:48:14;;;;;;;10.30;9.50;;;;;;;2.12;99.26;99081.59;10475165;28;20552;-71
2022/12/08 21:53:17;;;;;;;11.45;10.55;;;;;;;2.05;100.00;99076.53;10476470;28;20033;-72
2022/12/08 21:58:19;;;;;;;11.98;11.07;;;;;;;1.84;100.00;99075.91;10475719;28;20037;-71
2022/12/08 22:03:21;;;;;;;12.30;11.30;;;;;;;1.86;100.00;99075.88;10454676;28;20070;-71
2022/12/08 22:08:23;;;;;;;14.43;13.32;;;;;;;1.72;100.00;99066.53;10472715;28;20056;-72
2022/12/08 22:13:25;;;;;;;13.63;12.63;;;;;;;2.05;100.00;99074.78;10471788;28;20103;-71
2022/12/08 22:18:27;;;;;;;12.57;11.60;;;;;;;2.11;100.00;99079.03;10448903;28;20041;-71
2022/12/08 22:23:32;;;;;;;12.93;11.88;;;;;;;1.97;100.00;99069.69;10447761;28;20124;-72
2022/12/08 22:28:38;;;;;;;14.15;12.95;;;;;;;1.90;100.00;99062.84;10465690;28;20041;-72
2022/12/08 22:33:41;;;;;;;15.18;13.88;;;;;;;1.85;100.00;99066.41;10447866;28;20159;-71
2022/12/08 22:38:43;;;;;;;12.65;11.65;;;;;;;2.20;100.00;99074.56;10447172;28;20065;-71
2022/12/08 22:43:46;;;;;;;14.13;12.88;;;;;;;1.92;100.00;99073.22;10463709;28;20045;-71
2022/12/08 22:48:48;;;;;;;13.57;12.48;;;;;;;2.11;100.00;99068.66;10445868;28;20071;-72
2022/12/08 22:53:50;;;;;;;13.43;12.40;;;;;;;2.16;100.00;99074.63;10447164;28;20076;-72
2022/12/08 22:58:52;;;;;;;13.43;12.30;;;;;;;2.19;100.00;99066.81;10465995;28;20048;-72
2022/12/08 23:03:55;;;;;;;13.02;12.10;;;;;;;2.20;100.00;99077.16;10465833;28;20041;-73
2022/12/08 23:08:58;;;;;;;12.68;11.68;;;;;;;2.47;99.57;99073.34;10445887;28;20140;-72
2022/12/08 23:14:00;;;;;;;12.98;11.98;;;;;;;2.42;99.36;99077.72;10444896;28;20052;-71
2022/12/08 23:19:01;;;;;;;13.18;12.07;;;;;;;2.21;100.00;99070.25;10462966;28;20110;-71
2022/12/08 23:24:04;;;;;;;13.95;12.88;;;;;;;2.23;100.00;99076.28;10463417;28;20490;-71
2022/12/08 23:29:05;;;;;;;12.50;11.50;;;;;;;2.46;98.92;99076.81;10463971;28;20052;-71
2022/12/08 23:34:08;;;;;;;13.95;12.70;;;;;;;2.06;100.00;99078.25;10444841;28;20055;-71
2022/12/08 23:39:10;;;;;;;13.95;12.85;;;;;;;2.11;100.00;99076.44;10462207;28;20094;-71
2022/12/08 23:44:12;;;;;;;13.70;12.60;;;;;;;2.04;100.00;99070.50;10462987;28;20041;-71
2022/12/08 23:49:14;;;;;;;14.35;13.18;;;;;;;1.97;100.00;99077.47;10461815;28;20041;-71
2022/12/08 23:54:16;;;;;;;14.55;13.45;;;;;;;1.90;100.00;99072.38;10444378;28;20135;-71
2022/12/08 23:59:18;;;;;;;14.05;12.95;;;;;;;1.89;100.00;99068.94;10461781;28;20044;-71
